Klamath Falls Airport Klamath Falls US
ICAO: KLMT
IATA: LMT
Category: Medium
Scheduled Services: Yes

Elevation: 4095 ft
TransAlt. 18000 ft.

Airport Communications:
KINGSLEY APP/DEP:123.675
ATIS:126.5
CTAF:118.2
GND:121.9
ANG BASE OPS:38.895
MC MINNVILLE RDO:122.6
KINGSLEY TWR:118.2
UNICOM:122.95

KLMT Zoom In..

If you have problems with the map follow the link
https://www.worldairports.se/pages/airport.php?
ICAO=KLMT

Runways:

(A) RW 07 length 5258 ft width 100 ft
---- / hdg 73

(B) RW 14 length 10301 ft width 150 ft
---- / hdg 141

(C) RW 25 length 5258 ft width 100 ft
---- / hdg 253

(D) RW 32 length 10301 ft width 150 ft
ILS 109.50 / hdg 321

Location; KLMT
Day. 12 / Time. 22.53 Zulu
* Altimeter: 30.15
* Temperature: 06° c. 42.8°f.
* Wind from: 280° Speed 17 kn.
Dewpoint: 03° c.
Visibility: 5 Statute Miles.
Clouds: Few 1500 ft.
Clouds: Broken 2500 ft.
Clouds: Overcast 5500 ft.
Conditions: Rain.Conditions: Mist.

KLMT 122253Z 28017KT 5SM RA BR FEW015 BKN025 OVC055 06/03 A3015 RMK AO2 SLP211 P0005 T00560033


Wind From 280°
Speed 17 kn.

 
 
jpsmedia worldairports.se 2019   terms of use